Time;durP1;ratioP1;P1;durP2;ratioP2;P2;SDS_P1;SDS_P2;PMS_P1;PMS_P2;Temp;Humidity;BMP_temperature;BMP_pressure;BME280_temperature;BME280_humidity;BME280_pressure;Samples;Min_cycle;Max_cycle;Signal;HPM_P1;HPM_P2
2024/04/01 00:02:06;;;;;;;0.50;0.40;;;11.30;99.90;;;;;;5074496;28;20542;-80
2024/04/01 00:04:32;;;;;;;0.50;0.50;;;11.30;99.90;;;;;;5074303;28;20432;-80
2024/04/01 00:07:00;;;;;;;0.50;0.40;;;11.30;99.90;;;;;;5074331;28;20443;-80
2024/04/01 00:09:26;;;;;;;0.50;0.40;;;11.30;99.90;;;;;;5074786;28;20449;-81
2024/04/01 00:11:52;;;;;;;0.50;0.40;;;11.30;99.90;;;;;;5074967;28;20436;-80
2024/04/01 00:14:19;;;;;;;0.50;0.40;;;11.40;99.90;;;;;;5074062;28;20198;-82
2024/04/01 00:16:47;;;;;;;0.53;0.47;;;11.40;99.90;;;;;;5074052;28;20854;-81
2024/04/01 00:19:13;;;;;;;0.50;0.40;;;11.30;99.90;;;;;;5073916;28;20483;-81
2024/04/01 00:21:41;;;;;;;0.50;0.40;;;11.30;99.90;;;;;;5074171;28;20469;-80
2024/04/01 00:24:06;;;;;;;0.50;0.40;;;11.30;99.90;;;;;;5073009;28;20195;-80
2024/04/01 00:26:34;;;;;;;0.50;0.40;;;11.30;99.90;;;;;;5073623;28;20191;-80
2024/04/01 00:29:00;;;;;;;0.50;0.40;;;11.30;99.90;;;;;;5073638;28;20248;-80
2024/04/01 00:31:29;;;;;;;0.50;0.50;;;11.30;99.90;;;;;;5073617;28;20865;-80
2024/04/01 00:33:56;;;;;;;0.60;0.50;;;11.30;99.90;;;;;;5073379;28;20198;-80
2024/04/01 00:36:25;;;;;;;5.70;0.77;;;11.30;99.90;;;;;;5073276;28;20536;-81
2024/04/01 00:38:50;;;;;;;0.50;0.40;;;11.30;99.90;;;;;;5073376;28;20499;-80
2024/04/01 00:41:18;;;;;;;0.60;0.50;;;11.30;99.90;;;;;;5073645;28;20998;-80
2024/04/01 00:43:43;;;;;;;0.50;0.40;;;11.30;99.90;;;;;;5073542;28;20989;-80
2024/04/01 00:46:10;;;;;;;0.50;0.40;;;11.30;99.90;;;;;;5073312;28;20201;-80
2024/04/01 00:48:36;;;;;;;1.70;1.07;;;11.20;99.90;;;;;;5072977;28;20224;-80
2024/04/01 00:51:05;;;;;;;0.50;0.50;;;11.20;99.90;;;;;;5073320;28;20428;-80
2024/04/01 00:53:33;;;;;;;0.60;0.50;;;11.10;99.90;;;;;;5073925;28;20792;-80
2024/04/01 00:56:02;;;;;;;0.50;0.40;;;11.10;99.90;;;;;;5073880;28;20439;-80
2024/04/01 00:58:28;;;;;;;0.73;0.73;;;11.10;99.90;;;;;;5073435;28;20551;-80
2024/04/01 01:00:57;;;;;;;0.50;0.40;;;11.20;99.90;;;;;;5073412;28;20440;-82
2024/04/01 01:03:25;;;;;;;0.50;0.40;;;11.10;99.90;;;;;;5073009;28;20428;-83
2024/04/01 01:05:51;;;;;;;1.53;1.43;;;11.10;99.90;;;;;;5074369;28;20440;-82
2024/04/01 01:08:19;;;;;;;0.50;0.40;;;11.10;99.90;;;;;;5073888;28;20456;-80
2024/04/01 01:10:49;;;;;;;0.50;0.40;;;11.10;99.90;;;;;;5073079;28;20447;-80
2024/04/01 01:13:15;;;;;;;0.50;0.40;;;11.00;99.90;;;;;;5072665;28;20437;-80
2024/04/01 01:15:42;;;;;;;0.50;0.40;;;11.00;99.90;;;;;;5073136;28;20441;-81
2024/04/01 01:18:08;;;;;;;0.50;0.40;;;11.00;99.90;;;;;;5073175;28;20472;-80
2024/04/01 01:20:35;;;;;;;0.50;0.40;;;10.90;99.90;;;;;;5072674;28;21005;-80
2024/04/01 01:23:02;;;;;;;0.50;0.50;;;10.90;99.90;;;;;;5081305;28;20472;-80
2024/04/01 01:25:28;;;;;;;0.50;0.40;;;11.00;99.90;;;;;;5087108;28;20440;-80
2024/04/01 01:27:54;;;;;;;0.50;0.40;;;11.00;99.90;;;;;;5080599;28;20466;-82
2024/04/01 01:30:22;;;;;;;0.50;0.40;;;11.00;99.90;;;;;;5072404;28;20436;-81
2024/04/01 01:32:51;;;;;;;0.50;0.43;;;11.00;99.90;;;;;;5071832;28;20190;-81
2024/04/01 01:35:21;;;;;;;0.50;0.40;;;11.00;99.90;;;;;;5072026;28;20433;-82
2024/04/01 01:37:49;;;;;;;0.50;0.40;;;11.00;99.90;;;;;;5075523;28;20808;-81
2024/04/01 01:40:18;;;;;;;0.50;0.40;;;11.00;99.90;;;;;;5077875;28;20523;-80
2024/04/01 01:42:46;;;;;;;0.50;0.40;;;11.00;99.90;;;;;;5077043;28;20218;-81
2024/04/01 01:45:13;;;;;;;0.50;0.40;;;11.00;99.90;;;;;;5076495;28;20193;-80
2024/04/01 01:47:41;;;;;;;0.50;0.40;;;11.00;99.90;;;;;;5077141;28;20452;-80
2024/04/01 01:50:10;;;;;;;0.50;0.47;;;11.00;99.90;;;;;;5076300;28;20452;-83
2024/04/01 01:52:36;;;;;;;0.50;0.50;;;11.10;99.90;;;;;;5075784;28;20433;-80
2024/04/01 01:55:03;;;;;;;0.50;0.40;;;11.00;99.90;;;;;;5075769;28;20538;-81
2024/04/01 01:57:31;;;;;;;0.50;0.40;;;11.10;99.90;;;;;;5075929;28;20309;-80
2024/04/01 02:00:00;;;;;;;0.50;0.40;;;11.10;99.90;;;;;;5075492;28;20456;-81
2024/04/01 02:02:25;;;;;;;0.50;0.40;;;11.10;99.90;;;;;;5075375;28;20844;-81
2024/04/01 02:04:52;;;;;;;0.50;0.40;;;11.10;99.90;;;;;;5075056;28;20436;-81
2024/04/01 02:07:19;;;;;;;0.50;0.40;;;11.10;99.90;;;;;;5075227;28;20831;-82
2024/04/01 02:09:46;;;;;;;0.50;0.40;;;11.10;99.90;;;;;;5075155;28;20436;-81
2024/04/01 02:12:11;;;;;;;0.50;0.40;;;11.10;99.90;;;;;;5075410;28;20432;-82
2024/04/01 02:14:40;;;;;;;0.50;0.50;;;11.10;99.90;;;;;;5075354;28;20443;-82
2024/04/01 02:17:07;;;;;;;0.50;0.40;;;11.20;99.90;;;;;;5079244;28;20198;-82
2024/04/01 02:19:35;;;;;;;0.50;0.40;;;11.20;99.90;;;;;;5078958;28;20440;-82
2024/04/01 02:22:01;;;;;;;0.50;0.43;;;11.10;99.90;;;;;;5078187;28;20480;-82
2024/04/01 02:24:29;;;;;;;0.50;0.40;;;11.10;99.90;;;;;;5078496;28;20799;-82
2024/04/01 02:26:55;;;;;;;0.50;0.40;;;11.10;99.90;;;;;;5078049;28;20452;-83
2024/04/01 02:29:22;;;;;;;0.50;0.40;;;11.10;99.90;;;;;;5078101;28;20194;-82
2024/04/01 02:31:49;;;;;;;0.50;0.40;;;11.10;99.90;;;;;;5078061;28;20190;-82
2024/04/01 02:34:17;;;;;;;0.50;0.40;;;11.10;99.90;;;;;;5077873;28;20815;-82
2024/04/01 02:36:43;;;;;;;0.50;0.40;;;11.00;99.90;;;;;;5078133;28;20437;-82
2024/04/01 02:39:16;;;;;;;0.50;0.40;;;11.00;99.90;;;;;;5078272;28;20457;-82
2024/04/01 02:41:42;;;;;;;0.77;0.77;;;11.00;99.90;;;;;;5076754;28;20216;-83
2024/04/01 02:44:09;;;;;;;0.50;0.40;;;10.90;99.90;;;;;;5077307;28;20436;-82
2024/04/01 02:46:34;;;;;;;0.50;0.40;;;10.90;99.90;;;;;;5077663;28;20437;-82
2024/04/01 02:49:04;;;;;;;0.70;0.43;;;10.90;99.90;;;;;;5077908;28;20463;-82
2024/04/01 02:51:29;;;;;;;0.50;0.40;;;10.90;99.90;;;;;;5078337;28;20194;-82
2024/04/01 02:53:56;;;;;;;0.50;0.40;;;10.90;99.90;;;;;;5077837;28;20190;-83
2024/04/01 02:56:22;;;;;;;0.50;0.40;;;10.90;99.90;;;;;;5077738;28;20194;-82
2024/04/01 02:58:50;;;;;;;0.50;0.50;;;10.90;99.90;;;;;;5077699;28;20510;-82
2024/04/01 03:01:15;;;;;;;0.50;0.40;;;10.90;99.90;;;;;;5077652;28;20826;-82
2024/04/01 03:03:43;;;;;;;0.50;0.40;;;10.90;99.90;;;;;;5077156;28;20440;-83
2024/04/01 03:06:10;;;;;;;0.50;0.40;;;10.80;99.90;;;;;;5078142;28;20195;-82
2024/04/01 03:08:38;;;;;;;0.50;0.40;;;10.90;99.90;;;;;;5078109;28;20463;-82
2024/04/01 03:11:04;;;;;;;0.50;0.40;;;10.80;99.90;;;;;;5077594;28;20467;-82
2024/04/01 03:13:31;;;;;;;0.50;0.40;;;10.80;99.90;;;;;;5077429;28;20570;-82
2024/04/01 03:15:57;;;;;;;0.50;0.40;;;10.80;99.90;;;;;;5077485;28;20210;-83
2024/04/01 03:18:26;;;;;;;0.50;0.40;;;10.70;99.90;;;;;;5078166;28;20520;-82
2024/04/01 03:20:53;;;;;;;0.50;0.40;;;10.70;99.90;;;;;;5077982;28;20490;-83
2024/04/01 03:23:21;;;;;;;0.50;0.40;;;10.60;99.90;;;;;;5077216;28;20215;-82
2024/04/01 03:25:50;;;;;;;0.50;0.40;;;10.60;99.90;;;;;;5077566;28;20447;-83
2024/04/01 03:28:17;;;;;;;0.50;0.40;;;10.60;99.90;;;;;;5077538;28;20453;-83
2024/04/01 03:30:43;;;;;;;0.50;0.40;;;10.60;99.90;;;;;;5077227;28;20199;-83
2024/04/01 03:33:12;;;;;;;0.50;0.40;;;10.70;99.90;;;;;;5077277;28;20429;-82
2024/04/01 03:35:38;;;;;;;0.50;0.40;;;10.70;99.90;;;;;;5078126;28;20820;-82
2024/04/01 03:38:05;;;;;;;0.50;0.40;;;10.70;99.90;;;;;;5077852;28;20452;-83
2024/04/01 03:40:33;;;;;;;0.50;0.50;;;10.70;99.90;;;;;;5077526;28;20807;-82
2024/04/01 03:43:01;;;;;;;0.50;0.40;;;10.60;99.90;;;;;;5076991;28;20483;-82
2024/04/01 03:45:28;;;;;;;0.50;0.40;;;10.60;99.90;;;;;;5087072;28;20435;-80
2024/04/01 03:47:54;;;;;;;0.50;0.40;;;10.60;99.90;;;;;;5091464;28;20452;-80
2024/04/01 03:50:20;;;;;;;0.50;0.40;;;10.60;99.90;;;;;;5090894;28;20894;-81
2024/04/01 03:52:47;;;;;;;0.50;0.40;;;10.60;99.90;;;;;;5080289;28;20484;-80
2024/04/01 03:55:13;;;;;;;0.50;0.40;;;10.60;99.90;;;;;;5090505;28;20276;-80
2024/04/01 03:57:42;;;;;;;0.50;0.40;;;10.60;99.90;;;;;;5090652;28;21015;-81
2024/04/01 04:00:11;;;;;;;0.50;0.40;;;10.60;99.90;;;;;;5090083;28;20441;-81
2024/04/01 04:02:42;;;;;;;0.50;0.40;;;10.70;99.90;;;;;;5084875;28;20526;-82
2024/04/01 04:05:09;;;;;;;0.50;0.40;;;10.80;99.90;;;;;;5076645;28;20491;-82
2024/04/01 04:07:35;;;;;;;0.50;0.40;;;10.80;99.90;;;;;;5076927;28;20475;-83
2024/04/01 04:10:03;;;;;;;0.50;0.40;;;10.80;99.90;;;;;;5076582;28;20441;-83
2024/04/01 04:12:31;;;;;;;0.50;0.40;;;10.90;99.90;;;;;;5076486;28;20858;-82
2024/04/01 04:15:00;;;;;;;0.50;0.40;;;10.90;99.90;;;;;;5076402;28;20466;-83
2024/04/01 04:17:27;;;;;;;0.50;0.40;;;11.00;99.90;;;;;;5077350;28;20547;-82
2024/04/01 04:19:53;;;;;;;0.50;0.40;;;11.00;99.90;;;;;;5076942;28;20964;-83
2024/04/01 04:22:21;;;;;;;0.50;0.40;;;11.00;99.90;;;;;;5074847;28;20465;-82
2024/04/01 04:24:48;;;;;;;0.60;0.60;;;11.00;99.90;;;;;;5075454;28;20194;-83
2024/04/01 04:27:15;;;;;;;0.50;0.40;;;11.00;99.90;;;;;;5075741;28;20472;-82
2024/04/01 04:29:40;;;;;;;0.50;0.50;;;11.00;99.90;;;;;;5076833;28;20437;-82
2024/04/01 04:32:13;;;;;;;0.50;0.40;;;10.90;99.90;;;;;;5076402;28;20963;-82
2024/04/01 04:34:40;;;;;;;0.50;0.40;;;10.90;99.90;;;;;;5076201;28;20191;-83
2024/04/01 04:37:07;;;;;;;0.50;0.40;;;10.90;99.90;;;;;;5076206;28;20432;-83
2024/04/01 04:39:33;;;;;;;0.50;0.40;;;10.90;99.90;;;;;;5076378;28;21041;-82
2024/04/01 04:42:00;;;;;;;0.50;0.40;;;10.90;99.90;;;;;;5076411;28;20478;-82
2024/04/01 04:44:26;;;;;;;0.50;0.40;;;10.90;99.90;;;;;;5076221;28;20950;-83
2024/04/01 04:46:52;;;;;;;0.50;0.40;;;10.90;99.90;;;;;;5076041;28;20432;-82
2024/04/01 04:49:21;;;;;;;0.50;0.40;;;10.80;99.90;;;;;;5074835;28;20460;-81
2024/04/01 04:51:47;;;;;;;0.50;0.40;;;10.90;99.90;;;;;;5074663;28;20466;-82
2024/04/01 04:54:13;;;;;;;0.50;0.40;;;10.80;99.90;;;;;;5074969;28;20441;-81
2024/04/01 04:56:40;;;;;;;0.50;0.40;;;10.80;99.90;;;;;;5074593;28;20969;-81
2024/04/01 04:59:06;;;;;;;0.50;0.40;;;10.70;99.90;;;;;;5074403;28;20460;-82
2024/04/01 05:01:33;;;;;;;0.50;0.40;;;10.70;99.90;;;;;;5074933;28;20594;-81
2024/04/01 05:03:59;;;;;;;0.50;0.40;;;10.70;99.90;;;;;;5074589;28;20577;-81
2024/04/01 05:06:27;;;;;;;0.50;0.40;;;10.70;99.90;;;;;;5073613;28;20432;-81
2024/04/01 05:08:53;;;;;;;0.50;0.40;;;10.70;99.90;;;;;;5073380;28;20461;-81
2024/04/01 05:11:20;;;;;;;0.50;0.40;;;10.70;99.90;;;;;;5074818;28;20437;-80
2024/04/01 05:13:45;;;;;;;0.50;0.40;;;10.70;99.90;;;;;;5077553;28;20436;-80
2024/04/01 05:16:14;;;;;;;0.50;0.40;;;10.70;99.90;;;;;;5078259;28;20954;-80
2024/04/01 05:18:41;;;;;;;0.50;0.40;;;10.60;99.90;;;;;;5077018;28;20467;-81
2024/04/01 05:21:08;;;;;;;0.50;0.40;;;10.60;99.90;;;;;;5077356;28;20454;-81
2024/04/01 05:23:36;;;;;;;0.50;0.40;;;10.60;99.90;;;;;;5076986;28;20476;-82
2024/04/01 05:26:08;;;;;;;0.50;0.40;;;10.60;99.90;;;;;;5077427;28;20448;-81
2024/04/01 05:28:34;;;;;;;0.50;0.40;;;10.60;99.90;;;;;;5075696;28;20909;-82
2024/04/01 05:31:00;;;;;;;0.50;0.40;;;10.50;99.90;;;;;;5077074;28;20524;-80
2024/04/01 05:33:31;;;;;;;0.50;0.40;;;10.40;99.90;;;;;;5076480;28;20198;-81
2024/04/01 05:35:59;;;;;;;0.50;0.40;;;10.40;99.90;;;;;;5076937;28;20490;-81
2024/04/01 05:38:24;;;;;;;0.50;0.40;;;10.30;99.90;;;;;;5076921;28;21006;-80
2024/04/01 05:40:52;;;;;;;0.50;0.40;;;10.30;99.90;;;;;;5076857;28;20467;-80
2024/04/01 05:43:19;;;;;;;0.50;0.40;;;10.30;99.90;;;;;;5076297;28;20875;-81
2024/04/01 05:45:46;;;;;;;0.50;0.40;;;10.20;99.90;;;;;;5076562;28;20435;-81
2024/04/01 05:48:12;;;;;;;0.50;0.40;;;10.10;99.90;;;;;;5076065;28;20464;-80
2024/04/01 05:50:38;;;;;;;0.50;0.40;;;10.10;99.90;;;;;;5076464;28;20939;-82
2024/04/01 05:53:04;;;;;;;0.50;0.40;;;10.00;99.90;;;;;;5076523;28;20194;-81
2024/04/01 05:55:31;;;;;;;0.50;0.40;;;10.00;99.90;;;;;;5076625;28;20428;-81
2024/04/01 05:57:58;;;;;;;0.50;0.40;;;10.10;99.90;;;;;;5076780;28;20250;-82
2024/04/01 06:00:25;;;;;;;0.50;0.40;;;10.00;99.90;;;;;;5076447;28;21117;-81
2024/04/01 06:02:53;;;;;;;0.50;0.40;;;10.00;99.90;;;;;;5075685;28;20571;-81
2024/04/01 06:05:20;;;;;;;0.60;0.60;;;9.90;99.90;;;;;;5075870;28;20199;-82
2024/04/01 06:07:47;;;;;;;0.50;0.40;;;10.00;99.90;;;;;;5076286;28;20225;-82
2024/04/01 06:10:14;;;;;;;0.50;0.40;;;9.90;99.90;;;;;;5076160;28;20444;-81
2024/04/01 06:12:40;;;;;;;0.80;0.70;;;9.90;99.90;;;;;;5075055;28;20946;-81
2024/04/01 06:15:08;;;;;;;0.57;0.50;;;9.90;99.90;;;;;;5076157;28;20281;-81
2024/04/01 06:17:34;;;;;;;0.50;0.40;;;9.90;99.90;;;;;;5075089;28;20218;-80
2024/04/01 06:20:01;;;;;;;0.50;0.40;;;9.90;99.90;;;;;;5075354;28;20439;-81
2024/04/01 06:22:27;;;;;;;0.50;0.40;;;9.80;99.90;;;;;;5080732;28;20210;-81
2024/04/01 06:24:54;;;;;;;0.50;0.40;;;9.80;99.90;;;;;;5093074;28;20254;-81
2024/04/01 06:27:20;;;;;;;0.50;0.40;;;9.80;99.90;;;;;;5088853;28;20461;-82
2024/04/01 06:29:47;;;;;;;0.50;0.40;;;9.80;99.90;;;;;;5074605;28;20218;-82
2024/04/01 06:32:19;;;;;;;0.60;0.60;;;9.80;99.90;;;;;;5075327;28;20425;-82
2024/04/01 06:34:48;;;;;;;0.50;0.40;;;9.80;99.90;;;;;;5075222;28;20198;-82
2024/04/01 06:37:13;;;;;;;6.38;1.05;;;9.80;99.90;;;;;;5079065;28;20197;-82
2024/04/01 06:39:40;;;;;;;3.33;3.03;;;9.80;99.90;;;;;;5078483;28;20664;-82
2024/04/01 06:42:06;;;;;;;0.50;0.40;;;9.80;99.90;;;;;;5077836;28;20464;-82
2024/04/01 06:44:33;;;;;;;0.50;0.40;;;9.80;99.90;;;;;;5076791;28;20198;-81
2024/04/01 06:46:59;;;;;;;0.50;0.40;;;9.80;99.90;;;;;;5075733;28;20432;-80
2024/04/01 06:49:27;;;;;;;0.60;0.60;;;9.80;99.90;;;;;;5075870;28;20198;-80
2024/04/01 06:51:53;;;;;;;0.50;0.40;;;9.80;99.90;;;;;;5075636;28;20468;-80
2024/04/01 06:54:20;;;;;;;0.50;0.40;;;9.80;99.90;;;;;;5075610;28;20194;-80
2024/04/01 06:56:46;;;;;;;0.50;0.40;;;9.80;99.90;;;;;;5075647;28;20198;-81
2024/04/01 06:59:13;;;;;;;0.50;0.50;;;9.80;99.90;;;;;;5075744;28;20634;-81
2024/04/01 07:01:39;;;;;;;1.43;1.33;;;9.90;99.90;;;;;;5076079;28;20448;-82
2024/04/01 07:04:06;;;;;;;0.50;0.40;;;9.90;99.90;;;;;;5074729;28;20506;-82
2024/04/01 07:06:33;;;;;;;1.43;0.80;;;9.90;99.90;;;;;;5074971;28;20432;-81
2024/04/01 07:09:00;;;;;;;0.50;0.40;;;9.80;99.90;;;;;;5075137;28;20467;-82
2024/04/01 07:11:25;;;;;;;0.50;0.40;;;9.70;99.90;;;;;;5074960;28;20448;-82
2024/04/01 07:13:52;;;;;;;0.50;0.40;;;9.70;99.90;;;;;;5074560;28;20437;-82
2024/04/01 07:16:18;;;;;;;0.50;0.40;;;9.60;99.90;;;;;;5074912;28;20281;-82
2024/04/01 07:18:46;;;;;;;0.50;0.40;;;9.60;99.90;;;;;;5074049;28;20569;-81
2024/04/01 07:21:12;;;;;;;0.50;0.40;;;9.60;99.90;;;;;;5075051;28;20202;-82
2024/04/01 07:23:41;;;;;;;0.50;0.40;;;9.60;99.90;;;;;;5073067;28;20766;-82
2024/04/01 07:26:06;;;;;;;0.50;0.40;;;9.60;99.90;;;;;;5074573;28;20194;-82
2024/04/01 07:28:33;;;;;;;0.50;0.40;;;9.60;99.90;;;;;;5074620;28;20206;-82
2024/04/01 07:31:03;;;;;;;0.60;0.60;;;9.60;99.90;;;;;;5076623;28;20199;-83
2024/04/01 07:33:30;;;;;;;0.50;0.40;;;9.70;99.90;;;;;;5075629;28;20444;-82
2024/04/01 07:35:56;;;;;;;0.50;0.50;;;9.70;99.90;;;;;;5074908;28;20194;-82
2024/04/01 07:38:23;;;;;;;0.67;0.67;;;9.70;99.90;;;;;;5076373;28;20213;-83
2024/04/01 07:40:50;;;;;;;0.50;0.40;;;9.70;99.90;;;;;;5076416;28;20209;-83
2024/04/01 07:43:17;;;;;;;0.75;0.50;;;9.70;99.90;;;;;;5075957;28;20476;-83
2024/04/01 07:45:43;;;;;;;0.50;0.40;;;9.80;99.90;;;;;;5076084;28;20578;-83
2024/04/01 07:48:10;;;;;;;0.50;0.40;;;9.70;99.90;;;;;;5075787;28;20292;-83
2024/04/01 07:50:36;;;;;;;0.60;0.60;;;9.80;99.90;;;;;;5075895;28;20194;-82
2024/04/01 07:53:03;;;;;;;0.50;0.40;;;9.80;99.90;;;;;;5076954;28;20194;-82
2024/04/01 07:55:28;;;;;;;0.50;0.40;;;9.80;99.90;;;;;;5077215;28;20225;-82
2024/04/01 07:57:56;;;;;;;0.50;0.40;;;9.90;99.90;;;;;;5078005;28;20214;-83
2024/04/01 08:00:22;;;;;;;0.50;0.40;;;9.90;99.90;;;;;;5078364;28;20696;-84
2024/04/01 08:02:49;;;;;;;0.93;0.53;;;9.90;99.90;;;;;;5078909;28;20214;-83
2024/04/01 08:05:14;;;;;;;0.50;0.40;;;9.80;99.90;;;;;;5077018;28;20210;-82
2024/04/01 08:07:41;;;;;;;0.50;0.40;;;9.70;99.90;;;;;;5077648;28;21088;-83
2024/04/01 08:10:08;;;;;;;0.50;0.40;;;9.70;99.90;;;;;;5079470;28;20209;-83
2024/04/01 08:12:35;;;;;;;0.50;0.40;;;9.80;99.90;;;;;;5080122;28;20194;-82
2024/04/01 08:15:02;;;;;;;0.50;0.40;;;9.90;99.90;;;;;;5079373;28;20197;-83
2024/04/01 08:17:31;;;;;;;0.50;0.40;;;10.10;99.90;;;;;;5077022;28;20222;-83
2024/04/01 08:19:57;;;;;;;1.47;1.37;;;10.20;99.90;;;;;;5077060;28;20247;-83
2024/04/01 08:22:24;;;;;;;0.50;0.40;;;10.10;99.90;;;;;;5077511;28;20515;-83
2024/04/01 08:24:49;;;;;;;0.90;0.90;;;10.10;99.90;;;;;;5077645;28;20447;-83
2024/04/01 08:27:16;;;;;;;1.27;0.87;;;10.00;99.90;;;;;;5077397;28;21087;-82
2024/04/01 08:29:43;;;;;;;0.80;0.57;;;9.90;99.90;;;;;;5076508;28;20627;-83
2024/04/01 08:32:11;;;;;;;0.53;0.53;;;9.90;99.90;;;;;;5076413;28;20234;-83
2024/04/01 08:34:36;;;;;;;8.23;2.10;;;9.90;99.90;;;;;;5076947;28;20433;-83
2024/04/01 08:37:04;;;;;;;0.50;0.40;;;9.90;99.90;;;;;;5075908;28;20432;-82
2024/04/01 08:39:32;;;;;;;0.50;0.50;;;9.90;99.90;;;;;;5075126;28;20436;-82
2024/04/01 08:42:06;;;;;;;0.60;0.60;;;9.90;99.90;;;;;;5076854;28;20221;-82
2024/04/01 08:44:34;;;;;;;0.60;0.50;;;9.90;99.90;;;;;;5075688;28;20245;-82
2024/04/01 08:47:01;;;;;;;1.25;0.93;;;9.90;99.90;;;;;;5075868;28;20269;-82
2024/04/01 08:49:42;;;;;;;5.40;2.00;;;9.90;99.90;;;;;;5076026;28;20190;-82
2024/04/01 08:52:13;;;;;;;1.37;1.27;;;9.80;99.90;;;;;;5075471;28;20452;-83
2024/04/01 08:54:39;;;;;;;0.63;0.50;;;9.90;99.90;;;;;;5075415;28;20490;-81
2024/04/01 08:57:06;;;;;;;1.60;1.43;;;9.90;99.90;;;;;;5080995;28;20198;-81
2024/04/01 08:59:34;;;;;;;0.50;0.40;;;9.90;99.90;;;;;;5089867;28;20440;-81
2024/04/01 09:02:02;;;;;;;0.82;0.82;;;10.00;99.90;;;;;;5086846;28;20194;-83
2024/04/01 09:04:27;;;;;;;1.05;1.05;;;10.00;99.90;;;;;;5075455;28;20226;-83
2024/04/01 09:06:56;;;;;;;1.23;0.90;;;10.00;99.90;;;;;;5075914;28;20311;-83
2024/04/01 09:09:22;;;;;;;2.53;2.30;;;10.10;99.90;;;;;;5075185;28;20443;-83
2024/04/01 09:11:51;;;;;;;0.80;0.80;;;10.10;99.90;;;;;;5075704;28;20519;-83
2024/04/01 09:14:18;;;;;;;1.85;1.75;;;10.00;99.90;;;;;;5074885;28;20807;-83
2024/04/01 09:16:49;;;;;;;0.70;0.70;;;10.00;99.90;;;;;;5075511;28;20194;-83
2024/04/01 09:19:16;;;;;;;3.55;1.40;;;10.00;99.90;;;;;;5075466;28;20222;-83
2024/04/01 09:21:43;;;;;;;0.73;0.73;;;9.90;99.90;;;;;;5075326;28;20194;-83
2024/04/01 09:24:13;;;;;;;0.80;0.80;;;10.00;99.90;;;;;;5074530;28;20222;-83
2024/04/01 09:26:40;;;;;;;0.50;0.40;;;10.00;99.90;;;;;;5074958;28;20199;-83
2024/04/01 09:29:06;;;;;;;1.67;1.57;;;10.00;99.90;;;;;;5075332;28;20214;-83
2024/04/01 09:31:33;;;;;;;2.20;2.00;;;10.00;99.90;;;;;;5075153;28;20444;-83
2024/04/01 09:33:59;;;;;;;2.00;1.90;;;10.00;99.90;;;;;;5075546;28;20439;-83
2024/04/01 09:36:26;;;;;;;0.50;0.40;;;10.00;99.90;;;;;;5075208;28;20433;-83
2024/04/01 09:38:54;;;;;;;0.50;0.40;;;10.00;99.90;;;;;;5075371;28;20214;-83
2024/04/01 09:41:24;;;;;;;1.08;0.98;;;10.00;99.90;;;;;;5075025;28;20440;-83
2024/04/01 09:43:57;;;;;;;0.80;0.80;;;10.00;99.90;;;;;;5074547;28;20257;-83
2024/04/01 09:46:25;;;;;;;0.50;0.40;;;10.00;99.90;;;;;;5075191;28;20504;-83
2024/04/01 09:48:53;;;;;;;0.80;0.80;;;10.00;99.90;;;;;;5074934;28;20457;-82
2024/04/01 09:51:20;;;;;;;2.55;1.55;;;10.00;99.90;;;;;;5074606;28;20464;-81
2024/04/01 09:53:46;;;;;;;2.15;1.48;;;10.00;99.90;;;;;;5073183;28;20244;-82
2024/04/01 09:56:51;;;;;;;0.50;0.40;;;10.10;99.90;;;;;;5073615;28;20197;-81
2024/04/01 09:59:56;;;;;;;0.50;0.50;;;10.00;99.90;;;;;;5077650;28;20459;-81
2024/04/01 10:02:45;;;;;;;2.85;2.08;;;10.00;99.90;;;;;;5076561;28;20275;-82
2024/04/01 10:05:48;;;;;;;0.50;0.50;;;10.00;99.90;;;;;;5077090;28;20186;-81
2024/04/01 10:08:46;;;;;;;0.95;0.95;;;10.00;99.90;;;;;;5046682;28;20227;-82
2024/04/01 10:11:45;;;;;;;1.20;1.20;;;10.00;99.90;;;;;;5077168;28;20194;-81
2024/04/01 10:14:43;;;;;;;1.05;0.95;;;10.00;99.90;;;;;;5076189;28;20429;-82
2024/04/01 10:17:47;;;;;;;0.50;0.40;;;10.00;99.90;;;;;;5049855;28;20278;-82
2024/04/01 10:20:46;;;;;;;0.73;0.73;;;10.00;99.90;;;;;;5077271;28;20191;-81
2024/04/01 10:23:54;;;;;;;0.60;0.60;;;10.10;99.90;;;;;;5076735;28;20317;-82
2024/04/01 10:27:00;;;;;;;3.55;3.08;;;10.00;99.90;;;;;;5076643;28;20212;-81
2024/04/01 10:29:53;;;;;;;1.95;1.85;;;10.00;99.90;;;;;;5048944;28;20691;-82
2024/04/01 10:32:53;;;;;;;0.80;0.52;;;10.00;99.90;;;;;;5076553;28;20198;-82
2024/04/01 10:35:51;;;;;;;3.33;1.70;;;10.00;99.90;;;;;;5075331;28;20194;-82
2024/04/01 10:38:49;;;;;;;0.63;0.63;;;10.10;99.90;;;;;;5076357;28;20552;-82
2024/04/01 10:41:46;;;;;;;1.33;1.23;;;10.00;99.90;;;;;;5075428;28;20946;-81
2024/04/01 10:44:43;;;;;;;1.53;0.97;;;10.10;99.90;;;;;;5075606;28;20778;-82
2024/04/01 10:47:32;;;;;;;4.53;4.03;;;10.10;99.90;;;;;;5076258;28;20443;-81
2024/04/01 10:50:19;;;;;;;0.70;0.70;;;10.20;99.90;;;;;;5075871;28;20194;-83
2024/04/01 10:52:54;;;;;;;1.97;1.87;;;10.20;99.90;;;;;;5075551;28;20433;-82
2024/04/01 10:56:02;;;;;;;3.53;1.67;;;10.30;99.90;;;;;;5075279;28;20424;-81
2024/04/01 10:59:08;;;;;;;3.80;2.40;;;10.30;99.90;;;;;;5039206;28;20309;-81
2024/04/01 11:01:59;;;;;;;1.53;1.00;;;10.30;99.90;;;;;;5074964;28;20471;-82
2024/04/01 11:05:06;;;;;;;3.23;2.20;;;10.30;99.90;;;;;;5074646;28;20480;-81
2024/04/01 11:07:52;;;;;;;4.72;4.32;;;10.30;99.90;;;;;;4976910;28;20456;-82
2024/04/01 11:10:27;;;;;;;0.85;0.80;;;10.30;99.90;;;;;;5065218;28;20198;-82
2024/04/01 11:13:04;;;;;;;1.57;1.47;;;10.30;99.90;;;;;;5074370;28;20201;-81
2024/04/01 11:15:32;;;;;;;2.35;2.10;;;10.50;99.90;;;;;;5074578;28;20444;-81
2024/04/01 11:18:11;;;;;;;3.93;3.70;;;10.70;99.90;;;;;;5074552;28;20210;-81
2024/04/01 11:20:44;;;;;;;0.63;0.63;;;10.70;99.90;;;;;;5074010;28;20440;-81
2024/04/01 11:23:45;;;;;;;3.30;3.00;;;10.70;99.90;;;;;;5073584;28;20555;-81
2024/04/01 11:26:27;;;;;;;4.13;3.80;;;10.70;99.90;;;;;;5076191;28;20788;-82
2024/04/01 11:29:11;;;;;;;0.80;0.70;;;10.70;99.90;;;;;;5084468;28;20468;-80
2024/04/01 11:31:44;;;;;;;3.80;3.50;;;10.70;99.90;;;;;;5092801;28;20436;-81
2024/04/01 11:34:18;;;;;;;1.50;0.85;;;10.80;99.90;;;;;;5077001;28;20429;-82
2024/04/01 11:36:55;;;;;;;1.37;0.90;;;10.70;99.90;;;;;;5076985;28;20194;-82
2024/04/01 11:39:23;;;;;;;2.92;1.35;;;10.70;99.90;;;;;;5076701;28;20474;-82
2024/04/01 11:41:52;;;;;;;2.73;1.43;;;10.80;99.90;;;;;;5076336;28;20194;-83
2024/04/01 11:44:23;;;;;;;1.27;1.17;;;10.90;99.90;;;;;;5075934;28;20503;-82
2024/04/01 11:46:52;;;;;;;2.20;1.90;;;11.00;99.90;;;;;;5076185;28;20472;-83
2024/04/01 11:49:23;;;;;;;2.40;1.67;;;11.10;99.90;;;;;;5074983;28;20500;-82
2024/04/01 11:51:52;;;;;;;1.20;1.10;;;11.30;99.90;;;;;;5076357;28;20479;-82
2024/04/01 11:54:25;;;;;;;2.20;1.80;;;11.30;99.90;;;;;;5076322;28;20436;-82
2024/04/01 11:56:52;;;;;;;2.13;2.03;;;11.20;99.90;;;;;;5075682;28;20433;-82
2024/04/01 11:59:29;;;;;;;0.50;0.40;;;11.20;99.90;;;;;;5075711;28;20453;-82
2024/04/01 12:01:55;;;;;;;5.23;3.40;;;11.20;99.90;;;;;;5075900;28;20481;-82
2024/04/01 12:04:24;;;;;;;2.50;1.70;;;11.20;99.90;;;;;;5075549;28;20472;-82
2024/04/01 12:06:51;;;;;;;1.33;1.27;;;11.30;99.90;;;;;;5075489;28;20305;-82
2024/04/01 12:09:20;;;;;;;0.80;0.77;;;11.40;99.90;;;;;;5074620;28;20493;-81
2024/04/01 12:11:47;;;;;;;0.90;0.90;;;11.60;99.90;;;;;;5075551;28;20854;-82
2024/04/01 12:14:14;;;;;;;6.30;3.27;;;11.50;99.90;;;;;;5075064;28;20520;-82
2024/04/01 12:16:45;;;;;;;2.37;2.17;;;11.50;99.90;;;;;;5078938;28;20437;-82
2024/04/01 12:19:15;;;;;;;1.47;1.37;;;11.30;99.90;;;;;;5080370;28;20479;-82
2024/04/01 12:21:48;;;;;;;0.80;0.80;;;11.20;99.90;;;;;;5077315;28;20519;-82
2024/04/01 12:24:17;;;;;;;3.27;2.33;;;11.10;99.90;;;;;;5074953;28;20476;-82
2024/04/01 12:26:49;;;;;;;1.07;1.07;;;11.10;99.90;;;;;;5077797;28;20437;-83
2024/04/01 12:29:16;;;;;;;1.67;1.57;;;11.10;99.90;;;;;;5077601;28;20448;-81
2024/04/01 12:31:46;;;;;;;1.00;1.00;;;11.10;99.90;;;;;;5076571;28;20440;-81
2024/04/01 12:34:14;;;;;;;0.50;0.40;;;11.10;99.90;;;;;;5074021;28;20854;-82
2024/04/01 12:36:41;;;;;;;0.50;0.40;;;11.20;99.90;;;;;;5073640;28;20440;-81
2024/04/01 12:39:11;;;;;;;0.60;0.50;;;11.30;99.90;;;;;;5073823;28;20963;-82
2024/04/01 12:41:38;;;;;;;0.93;0.93;;;11.40;99.90;;;;;;5073731;28;20444;-82
2024/04/01 12:44:07;;;;;;;1.33;1.33;;;11.40;99.90;;;;;;5073504;28;20469;-81
2024/04/01 12:46:36;;;;;;;2.20;2.00;;;11.40;99.90;;;;;;5076335;28;20436;-82
2024/04/01 12:49:04;;;;;;;0.50;0.40;;;11.40;99.90;;;;;;5073889;28;20463;-81
2024/04/01 12:51:32;;;;;;;1.67;1.57;;;11.30;99.90;;;;;;5073455;28;20440;-82
2024/04/01 12:54:19;;;;;;;6.82;2.85;;;11.20;99.90;;;;;;5072796;28;20433;-82
2024/04/01 12:57:08;;;;;;;2.30;1.43;;;11.20;99.90;;;;;;5072941;28;20272;-82
2024/04/01 12:59:50;;;;;;;0.50;0.50;;;11.20;99.90;;;;;;5072825;28;20428;-82
2024/04/01 13:02:38;;;;;;;1.13;1.03;;;11.30;99.90;;;;;;5073056;28;20951;-82
2024/04/01 13:05:17;;;;;;;4.10;1.37;;;11.30;99.90;;;;;;5078790;28;21009;-83